Terminal Aerodrome Forecast
Issued by NWS Tulsa, OK

Home | Current Version | Previous Version | Text Only | Print | Product List | Glossary On
Versions: 1 2 3 4 5 6 7 8 9 10 11 12 13 14 15 16 17 18 19 20 21 22 23 24
375
FTUS44 KTSA 251415 AAD
TAFTUL
TAF AMD
KTUL 251415Z 2514/2612 11015G21KT P6SM FEW012 SCT030 BKN060
     FM251600 18014G22KT P6SM SCT040
     FM260200 18013KT P6SM OVC100
     FM260800 17011KT P6SM BKN025=

USA.gov is the U.S. government's official web portal to all federal, state and local government web resources and services.